sensor_id;sensor_type;location;lat;lon;timestamp;pressure;altitude;pressure_sealevel;temperature;humidity
75585;BME280;64162;53.508;10.476;2023-12-04T00:00:20;101513.25;;;2.89;67.62
75585;BME280;64162;53.508;10.476;2023-12-04T00:02:47;101505.91;;;2.39;68.79
75585;BME280;64162;53.508;10.476;2023-12-04T00:05:13;101514.34;;;2.26;68.73
75585;BME280;64162;53.508;10.476;2023-12-04T00:07:40;101510.00;;;2.72;68.49
75585;BME280;64162;53.508;10.476;2023-12-04T00:10:07;101510.00;;;3.01;66.63
75585;BME280;64162;53.508;10.476;2023-12-04T00:12:34;101505.59;;;2.89;66.66
75585;BME280;64162;53.508;10.476;2023-12-04T00:15:01;101497.38;;;2.84;66.80
75585;BME280;64162;53.508;10.476;2023-12-04T00:17:28;101489.03;;;2.21;68.14
75585;BME280;64162;53.508;10.476;2023-12-04T00:19:54;101498.13;;;2.56;67.84
75585;BME280;64162;53.508;10.476;2023-12-04T00:22:21;101505.47;;;2.47;68.64
75585;BME280;64162;53.508;10.476;2023-12-04T00:24:50;101499.72;;;2.87;66.85
75585;BME280;64162;53.508;10.476;2023-12-04T00:27:16;101479.25;;;2.43;67.80
75585;BME280;64162;53.508;10.476;2023-12-04T00:29:43;101492.56;;;2.64;66.61
75585;BME280;64162;53.508;10.476;2023-12-04T00:32:09;101497.16;;;2.87;65.55
75585;BME280;64162;53.508;10.476;2023-12-04T00:34:36;101497.56;;;2.51;66.75
75585;BME280;64162;53.508;10.476;2023-12-04T00:37:03;101501.19;;;2.32;66.89
75585;BME280;64162;53.508;10.476;2023-12-04T00:39:29;101490.88;;;2.79;66.15
75585;BME280;64162;53.508;10.476;2023-12-04T00:41:56;101492.00;;;2.59;66.89
75585;BME280;64162;53.508;10.476;2023-12-04T00:44:22;101474.50;;;2.37;67.04
75585;BME280;64162;53.508;10.476;2023-12-04T00:46:49;101481.50;;;2.34;66.68
75585;BME280;64162;53.508;10.476;2023-12-04T00:49:15;101493.81;;;2.11;68.29
75585;BME280;64162;53.508;10.476;2023-12-04T00:51:42;101478.47;;;2.27;67.21
75585;BME280;64162;53.508;10.476;2023-12-04T00:54:09;101464.25;;;2.37;67.28
75585;BME280;64162;53.508;10.476;2023-12-04T00:56:37;101486.91;;;2.13;67.94
75585;BME280;64162;53.508;10.476;2023-12-04T00:59:04;101482.28;;;2.04;67.92
75585;BME280;64162;53.508;10.476;2023-12-04T01:01:33;101476.00;;;2.26;67.22
75585;BME280;64162;53.508;10.476;2023-12-04T01:03:59;101461.63;;;2.39;66.59
75585;BME280;64162;53.508;10.476;2023-12-04T01:06:26;101474.69;;;2.19;67.45
75585;BME280;64162;53.508;10.476;2023-12-04T01:08:54;101463.50;;;2.21;67.99
75585;BME280;64162;53.508;10.476;2023-12-04T01:11:20;101474.72;;;2.03;67.27
75585;BME280;64162;53.508;10.476;2023-12-04T01:13:50;101462.44;;;2.09;67.28
75585;BME280;64162;53.508;10.476;2023-12-04T01:16:17;101469.41;;;2.22;67.52
75585;BME280;64162;53.508;10.476;2023-12-04T01:18:43;101465.19;;;1.91;68.44
75585;BME280;64162;53.508;10.476;2023-12-04T01:21:11;101470.69;;;1.83;68.57
75585;BME280;64162;53.508;10.476;2023-12-04T01:23:37;101449.59;;;1.48;69.22
75585;BME280;64162;53.508;10.476;2023-12-04T01:26:04;101454.63;;;1.50;68.93
75585;BME280;64162;53.508;10.476;2023-12-04T01:28:31;101459.28;;;1.42;69.63
75585;BME280;64162;53.508;10.476;2023-12-04T01:30:57;101447.81;;;1.66;68.80
75585;BME280;64162;53.508;10.476;2023-12-04T01:33:24;101450.84;;;1.88;67.87
75585;BME280;64162;53.508;10.476;2023-12-04T01:35:50;101443.94;;;1.90;67.47
75585;BME280;64162;53.508;10.476;2023-12-04T01:38:17;101440.63;;;1.72;67.35
75585;BME280;64162;53.508;10.476;2023-12-04T01:40:44;101433.63;;;2.22;65.66
75585;BME280;64162;53.508;10.476;2023-12-04T01:43:10;101447.06;;;1.95;66.60
75585;BME280;64162;53.508;10.476;2023-12-04T01:45:37;101438.41;;;1.02;69.34
75585;BME280;64162;53.508;10.476;2023-12-04T01:48:04;101423.38;;;1.13;69.14
75585;BME280;64162;53.508;10.476;2023-12-04T01:50:33;101439.56;;;1.45;68.55
75585;BME280;64162;53.508;10.476;2023-12-04T01:53:01;101437.66;;;1.64;68.35
75585;BME280;64162;53.508;10.476;2023-12-04T01:55:29;101435.03;;;1.50;67.77
75585;BME280;64162;53.508;10.476;2023-12-04T01:57:56;101433.22;;;1.68;68.02
75585;BME280;64162;53.508;10.476;2023-12-04T02:00:23;101429.88;;;1.19;68.26
75585;BME280;64162;53.508;10.476;2023-12-04T02:02:50;101434.53;;;1.44;68.21
75585;BME280;64162;53.508;10.476;2023-12-04T02:05:17;101424.97;;;1.63;67.77
75585;BME280;64162;53.508;10.476;2023-12-04T02:07:45;101418.34;;;1.12;69.14
75585;BME280;64162;53.508;10.476;2023-12-04T02:10:12;101418.38;;;0.62;70.00
75585;BME280;64162;53.508;10.476;2023-12-04T02:12:39;101412.53;;;1.10;69.14
75585;BME280;64162;53.508;10.476;2023-12-04T02:15:06;101414.56;;;1.03;69.84
75585;BME280;64162;53.508;10.476;2023-12-04T02:17:32;101413.75;;;1.18;68.55
75585;BME280;64162;53.508;10.476;2023-12-04T02:19:59;101408.25;;;1.57;67.66
75585;BME280;64162;53.508;10.476;2023-12-04T02:22:26;101408.66;;;1.18;68.62
75585;BME280;64162;53.508;10.476;2023-12-04T02:24:52;101399.34;;;1.17;68.02
75585;BME280;64162;53.508;10.476;2023-12-04T02:27:25;101395.34;;;0.96;68.85
75585;BME280;64162;53.508;10.476;2023-12-04T02:29:59;101399.56;;;0.97;69.07
75585;BME280;64162;53.508;10.476;2023-12-04T02:32:31;101390.00;;;0.85;69.41
75585;BME280;64162;53.508;10.476;2023-12-04T02:34:59;101403.38;;;1.21;67.70
75585;BME280;64162;53.508;10.476;2023-12-04T02:37:27;101394.09;;;1.20;67.71
75585;BME280;64162;53.508;10.476;2023-12-04T02:39:54;101383.91;;;0.88;68.35
75585;BME280;64162;53.508;10.476;2023-12-04T02:42:22;101384.56;;;0.75;68.68
75585;BME280;64162;53.508;10.476;2023-12-04T02:44:51;101382.16;;;1.05;68.40
75585;BME280;64162;53.508;10.476;2023-12-04T02:47:18;101385.28;;;0.77;68.81
75585;BME280;64162;53.508;10.476;2023-12-04T02:49:45;101385.75;;;1.01;67.45
75585;BME280;64162;53.508;10.476;2023-12-04T02:52:11;101381.94;;;1.25;67.66
75585;BME280;64162;53.508;10.476;2023-12-04T02:54:38;101373.09;;;1.00;68.62
75585;BME280;64162;53.508;10.476;2023-12-04T02:57:05;101367.56;;;0.92;68.18
75585;BME280;64162;53.508;10.476;2023-12-04T02:59:31;101359.31;;;1.19;67.25
75585;BME280;64162;53.508;10.476;2023-12-04T03:01:58;101355.84;;;1.20;67.50
75585;BME280;64162;53.508;10.476;2023-12-04T03:04:24;101364.06;;;1.10;66.91
75585;BME280;64162;53.508;10.476;2023-12-04T03:06:51;101369.81;;;0.65;68.49
75585;BME280;64162;53.508;10.476;2023-12-04T03:09:18;101355.66;;;1.08;67.05
75585;BME280;64162;53.508;10.476;2023-12-04T03:11:44;101343.75;;;0.25;69.67
75585;BME280;64162;53.508;10.476;2023-12-04T03:14:11;101349.47;;;0.80;68.15
75585;BME280;64162;53.508;10.476;2023-12-04T03:16:38;101343.09;;;0.72;68.34
75585;BME280;64162;53.508;10.476;2023-12-04T03:19:04;101336.03;;;0.77;67.97
75585;BME280;64162;53.508;10.476;2023-12-04T03:21:32;101338.38;;;0.97;67.45
75585;BME280;64162;53.508;10.476;2023-12-04T03:23:58;101338.31;;;0.66;68.62
75585;BME280;64162;53.508;10.476;2023-12-04T03:26:25;101321.53;;;1.10;67.63
75585;BME280;64162;53.508;10.476;2023-12-04T03:28:51;101338.38;;;0.97;67.41
75585;BME280;64162;53.508;10.476;2023-12-04T03:31:18;101319.22;;;0.90;67.61
75585;BME280;64162;53.508;10.476;2023-12-04T03:33:45;101328.56;;;0.74;67.33
75585;BME280;64162;53.508;10.476;2023-12-04T03:36:11;101326.09;;;0.39;69.17
75585;BME280;64162;53.508;10.476;2023-12-04T03:38:38;101321.97;;;0.70;67.88
75585;BME280;64162;53.508;10.476;2023-12-04T03:41:05;101312.03;;;0.65;67.85
75585;BME280;64162;53.508;10.476;2023-12-04T03:43:31;101300.69;;;0.86;67.50
75585;BME280;64162;53.508;10.476;2023-12-04T03:45:58;101313.03;;;0.46;69.20
75585;BME280;64162;53.508;10.476;2023-12-04T03:48:24;101299.97;;;0.02;68.56
75585;BME280;64162;53.508;10.476;2023-12-04T03:50:51;101303.41;;;0.51;69.17
75585;BME280;64162;53.508;10.476;2023-12-04T03:53:17;101298.44;;;0.32;68.46
75585;BME280;64162;53.508;10.476;2023-12-04T03:55:44;101292.53;;;0.31;69.29
75585;BME280;64162;53.508;10.476;2023-12-04T03:58:11;101294.88;;;0.52;68.58
75585;BME280;64162;53.508;10.476;2023-12-04T04:00:37;101278.81;;;-0.16;70.35
75585;BME280;64162;53.508;10.476;2023-12-04T04:03:07;101280.66;;;0.48;68.76
75585;BME280;64162;53.508;10.476;2023-12-04T04:05:34;101274.38;;;0.37;69.10
75585;BME280;64162;53.508;10.476;2023-12-04T04:08:01;101280.06;;;0.42;69.05
75585;BME280;64162;53.508;10.476;2023-12-04T04:10:28;101279.31;;;0.89;67.31
75585;BME280;64162;53.508;10.476;2023-12-04T04:12:54;101257.25;;;0.57;67.51
75585;BME280;64162;53.508;10.476;2023-12-04T04:15:21;101256.25;;;0.43;68.88
75585;BME280;64162;53.508;10.476;2023-12-04T04:17:48;101260.06;;;0.02;69.75
75585;BME280;64162;53.508;10.476;2023-12-04T04:20:14;101257.69;;;0.65;67.57
75585;BME280;64162;53.508;10.476;2023-12-04T04:22:41;101250.69;;;0.53;67.81
75585;BME280;64162;53.508;10.476;2023-12-04T04:25:08;101257.53;;;0.68;67.61
75585;BME280;64162;53.508;10.476;2023-12-04T04:27:35;101251.56;;;0.52;67.70
75585;BME280;64162;53.508;10.476;2023-12-04T04:30:02;101230.97;;;0.72;67.40
75585;BME280;64162;53.508;10.476;2023-12-04T04:32:29;101249.72;;;0.05;68.62
75585;BME280;64162;53.508;10.476;2023-12-04T04:34:55;101235.09;;;-0.41;70.13
75585;BME280;64162;53.508;10.476;2023-12-04T04:37:22;101240.00;;;0.13;69.28
75585;BME280;64162;53.508;10.476;2023-12-04T04:39:49;101243.06;;;-0.15;70.10
75585;BME280;64162;53.508;10.476;2023-12-04T04:42:41;101239.34;;;0.10;69.03
75585;BME280;64162;53.508;10.476;2023-12-04T04:45:08;101231.75;;;0.41;67.97
75585;BME280;64162;53.508;10.476;2023-12-04T04:47:34;101233.63;;;0.37;67.39
75585;BME280;64162;53.508;10.476;2023-12-04T04:50:01;101234.97;;;0.12;68.28
75585;BME280;64162;53.508;10.476;2023-12-04T04:52:27;101229.88;;;0.45;67.75
75585;BME280;64162;53.508;10.476;2023-12-04T04:54:55;101227.56;;;0.40;68.32
75585;BME280;64162;53.508;10.476;2023-12-04T04:57:22;101231.97;;;0.69;66.93
75585;BME280;64162;53.508;10.476;2023-12-04T04:59:48;101228.88;;;-0.19;69.43
75585;BME280;64162;53.508;10.476;2023-12-04T05:02:15;101227.44;;;-0.07;69.85
75585;BME280;64162;53.508;10.476;2023-12-04T05:04:41;101228.63;;;-0.14;69.30
75585;BME280;64162;53.508;10.476;2023-12-04T05:07:08;101218.38;;;0.05;69.61
75585;BME280;64162;53.508;10.476;2023-12-04T05:09:35;101221.78;;;-0.47;70.72
75585;BME280;64162;53.508;10.476;2023-12-04T05:12:01;101207.44;;;-0.15;69.88
75585;BME280;64162;53.508;10.476;2023-12-04T05:14:28;101209.84;;;0.21;69.37
75585;BME280;64162;53.508;10.476;2023-12-04T05:16:55;101211.34;;;0.25;68.60
75585;BME280;64162;53.508;10.476;2023-12-04T05:19:21;101212.81;;;-0.04;69.05
75585;BME280;64162;53.508;10.476;2023-12-04T05:21:48;101194.28;;;0.27;68.32
75585;BME280;64162;53.508;10.476;2023-12-04T05:24:14;101197.53;;;0.14;68.43
75585;BME280;64162;53.508;10.476;2023-12-04T05:26:41;101200.88;;;0.63;67.13
75585;BME280;64162;53.508;10.476;2023-12-04T05:29:08;101184.84;;;0.45;67.23
75585;BME280;64162;53.508;10.476;2023-12-04T05:31:35;101202.75;;;-0.05;68.59
75585;BME280;64162;53.508;10.476;2023-12-04T05:34:01;101187.63;;;-0.08;69.40
75585;BME280;64162;53.508;10.476;2023-12-04T05:36:28;101178.00;;;0.14;68.93
75585;BME280;64162;53.508;10.476;2023-12-04T05:38:54;101188.59;;;0.22;67.90
75585;BME280;64162;53.508;10.476;2023-12-04T05:41:22;101185.06;;;0.25;68.83
75585;BME280;64162;53.508;10.476;2023-12-04T05:43:49;101194.09;;;0.30;67.58
75585;BME280;64162;53.508;10.476;2023-12-04T05:46:15;101185.13;;;-0.10;68.90
75585;BME280;64162;53.508;10.476;2023-12-04T05:48:42;101184.84;;;0.29;68.52
75585;BME280;64162;53.508;10.476;2023-12-04T05:51:10;101172.56;;;0.20;68.73
75585;BME280;64162;53.508;10.476;2023-12-04T05:53:37;101190.00;;;0.28;68.13
75585;BME280;64162;53.508;10.476;2023-12-04T05:56:05;101179.91;;;0.58;67.40
75585;BME280;64162;53.508;10.476;2023-12-04T05:58:32;101172.34;;;0.72;67.62
75585;BME280;64162;53.508;10.476;2023-12-04T06:00:58;101161.63;;;0.03;68.69
75585;BME280;64162;53.508;10.476;2023-12-04T06:03:25;101173.94;;;0.59;67.68
75585;BME280;64162;53.508;10.476;2023-12-04T06:05:52;101168.00;;;0.74;67.53
75585;BME280;64162;53.508;10.476;2023-12-04T06:08:20;101173.25;;;0.71;67.45
75585;BME280;64162;53.508;10.476;2023-12-04T06:10:46;101148.81;;;0.04;69.42
75585;BME280;64162;53.508;10.476;2023-12-04T06:13:13;101158.53;;;0.29;69.00
75585;BME280;64162;53.508;10.476;2023-12-04T06:15:40;101154.28;;;0.29;69.12
75585;BME280;64162;53.508;10.476;2023-12-04T06:18:06;101155.75;;;0.33;68.29
75585;BME280;64162;53.508;10.476;2023-12-04T06:20:33;101147.88;;;0.38;68.20
75585;BME280;64162;53.508;10.476;2023-12-04T06:23:00;101145.00;;;0.44;68.67
75585;BME280;64162;53.508;10.476;2023-12-04T06:25:27;101157.19;;;0.06;70.22
75585;BME280;64162;53.508;10.476;2023-12-04T06:27:53;101150.56;;;0.19;69.63
75585;BME280;64162;53.508;10.476;2023-12-04T06:30:20;101147.44;;;0.77;68.08
75585;BME280;64162;53.508;10.476;2023-12-04T06:32:47;101155.09;;;0.30;69.61
75585;BME280;64162;53.508;10.476;2023-12-04T06:35:14;101141.38;;;0.64;68.82
75585;BME280;64162;53.508;10.476;2023-12-04T06:37:43;101142.47;;;-0.05;70.51
75585;BME280;64162;53.508;10.476;2023-12-04T06:40:11;101153.75;;;0.07;69.77
75585;BME280;64162;53.508;10.476;2023-12-04T06:42:39;101135.63;;;0.45;69.90
75585;BME280;64162;53.508;10.476;2023-12-04T06:45:05;101133.31;;;0.09;69.92
75585;BME280;64162;53.508;10.476;2023-12-04T06:47:33;101136.09;;;0.04;70.75
75585;BME280;64162;53.508;10.476;2023-12-04T06:50:00;101145.25;;;-0.09;70.67
75585;BME280;64162;53.508;10.476;2023-12-04T06:52:27;101137.25;;;0.61;70.00
75585;BME280;64162;53.508;10.476;2023-12-04T06:54:54;101136.78;;;0.70;69.11
75585;BME280;64162;53.508;10.476;2023-12-04T06:57:20;101137.41;;;0.90;68.08
75585;BME280;64162;53.508;10.476;2023-12-04T06:59:47;101135.13;;;0.54;69.71
75585;BME280;64162;53.508;10.476;2023-12-04T07:02:14;101129.22;;;0.53;69.78
75585;BME280;64162;53.508;10.476;2023-12-04T07:04:40;101139.75;;;1.08;68.07
75585;BME280;64162;53.508;10.476;2023-12-04T07:07:07;101129.22;;;0.53;69.98
75585;BME280;64162;53.508;10.476;2023-12-04T07:09:34;101135.25;;;0.04;70.94
75585;BME280;64162;53.508;10.476;2023-12-04T07:12:01;101135.78;;;0.73;69.27
75585;BME280;64162;53.508;10.476;2023-12-04T07:14:29;101124.66;;;0.90;69.51
75585;BME280;64162;53.508;10.476;2023-12-04T07:16:55;101121.13;;;0.61;69.41
75585;BME280;64162;53.508;10.476;2023-12-04T07:19:22;101125.75;;;0.54;69.71
75585;BME280;64162;53.508;10.476;2023-12-04T07:21:48;101127.41;;;0.55;69.49
75585;BME280;64162;53.508;10.476;2023-12-04T07:24:15;101124.69;;;0.42;70.01
75585;BME280;64162;53.508;10.476;2023-12-04T07:26:42;101116.53;;;0.20;70.55
75585;BME280;64162;53.508;10.476;2023-12-04T07:29:09;101123.28;;;0.53;70.13
75585;BME280;64162;53.508;10.476;2023-12-04T07:31:37;101120.66;;;1.15;68.26
75585;BME280;64162;53.508;10.476;2023-12-04T07:34:04;101124.75;;;0.72;69.39
75585;BME280;64162;53.508;10.476;2023-12-04T07:36:30;101107.16;;;0.83;69.42
75585;BME280;64162;53.508;10.476;2023-12-04T07:38:57;101113.59;;;0.75;69.71
75585;BME280;64162;53.508;10.476;2023-12-04T07:41:24;101118.69;;;0.43;70.50
75585;BME280;64162;53.508;10.476;2023-12-04T07:43:50;101111.44;;;0.52;70.74
75585;BME280;64162;53.508;10.476;2023-12-04T07:46:18;101097.72;;;0.07;71.14
75585;BME280;64162;53.508;10.476;2023-12-04T07:48:44;101107.50;;;0.62;70.29
75585;BME280;64162;53.508;10.476;2023-12-04T07:51:12;101102.00;;;0.99;69.89
75585;BME280;64162;53.508;10.476;2023-12-04T07:53:38;101096.16;;;0.97;69.76
75585;BME280;64162;53.508;10.476;2023-12-04T07:56:05;101098.28;;;0.75;70.52
75585;BME280;64162;53.508;10.476;2023-12-04T07:58:32;101093.16;;;0.29;71.32
75585;BME280;64162;53.508;10.476;2023-12-04T08:00:59;101097.91;;;0.20;72.46
75585;BME280;64162;53.508;10.476;2023-12-04T08:03:25;101096.97;;;0.68;71.06
75585;BME280;64162;53.508;10.476;2023-12-04T08:05:52;101095.13;;;1.15;70.17
75585;BME280;64162;53.508;10.476;2023-12-04T08:08:19;101085.88;;;0.69;71.05
75585;BME280;64162;53.508;10.476;2023-12-04T08:10:45;101088.00;;;1.06;70.29
75585;BME280;64162;53.508;10.476;2023-12-04T08:13:12;101080.91;;;0.81;70.42
75585;BME280;64162;53.508;10.476;2023-12-04T08:15:39;101086.75;;;2.12;70.81
75585;BME280;64162;53.508;10.476;2023-12-04T08:18:05;101080.16;;;1.96;70.58
75585;BME280;64162;53.508;10.476;2023-12-04T08:20:32;101098.34;;;1.19;70.83
75585;BME280;64162;53.508;10.476;2023-12-04T08:23:01;101090.38;;;1.09;70.53
75585;BME280;64162;53.508;10.476;2023-12-04T08:25:28;101089.78;;;1.34;70.25
75585;BME280;64162;53.508;10.476;2023-12-04T08:27:54;101077.56;;;2.10;70.95
75585;BME280;64162;53.508;10.476;2023-12-04T08:30:21;101070.13;;;0.92;70.89
75585;BME280;64162;53.508;10.476;2023-12-04T08:32:47;101068.09;;;1.27;70.08
75585;BME280;64162;53.508;10.476;2023-12-04T08:35:14;101062.84;;;1.44;69.91
75585;BME280;64162;53.508;10.476;2023-12-04T08:37:41;101074.50;;;1.34;70.57
75585;BME280;64162;53.508;10.476;2023-12-04T08:40:08;101070.69;;;1.69;69.23
75585;BME280;64162;53.508;10.476;2023-12-04T08:42:34;101076.84;;;1.37;70.30
75585;BME280;64162;53.508;10.476;2023-12-04T08:45:01;101068.94;;;0.98;70.08
75585;BME280;64162;53.508;10.476;2023-12-04T08:47:28;101078.06;;;1.02;69.75
75585;BME280;64162;53.508;10.476;2023-12-04T08:49:54;101081.66;;;1.27;69.78
75585;BME280;64162;53.508;10.476;2023-12-04T08:52:21;101082.81;;;0.78;70.97
75585;BME280;64162;53.508;10.476;2023-12-04T08:54:48;101075.09;;;1.23;69.95
75585;BME280;64162;53.508;10.476;2023-12-04T08:57:14;101085.63;;;1.03;71.26
75585;BME280;64162;53.508;10.476;2023-12-04T08:59:41;101082.00;;;1.21;69.60
75585;BME280;64162;53.508;10.476;2023-12-04T09:02:08;101093.44;;;1.44;69.55
75585;BME280;64162;53.508;10.476;2023-12-04T09:04:35;101095.50;;;1.23;70.69
75585;BME280;64162;53.508;10.476;2023-12-04T09:07:02;101092.22;;;3.01;71.63
75585;BME280;64162;53.508;10.476;2023-12-04T09:09:32;101097.38;;;1.78;69.12
75585;BME280;64162;53.508;10.476;2023-12-04T09:11:59;101079.72;;;1.75;68.63
75585;BME280;64162;53.508;10.476;2023-12-04T09:14:25;101083.59;;;1.66;68.60
75585;BME280;64162;53.508;10.476;2023-12-04T09:16:54;101095.25;;;0.98;70.07
75585;BME280;64162;53.508;10.476;2023-12-04T09:19:21;101100.53;;;0.65;70.98
75585;BME280;64162;53.508;10.476;2023-12-04T09:21:47;101101.75;;;0.74;71.58
75585;BME280;64162;53.508;10.476;2023-12-04T09:24:16;101089.88;;;1.33;70.53
75585;BME280;64162;53.508;10.476;2023-12-04T09:26:43;101090.44;;;0.94;70.85
75585;BME280;64162;53.508;10.476;2023-12-04T09:29:11;101091.94;;;1.12;71.30
75585;BME280;64162;53.508;10.476;2023-12-04T09:31:38;101101.88;;;0.86;70.79
75585;BME280;64162;53.508;10.476;2023-12-04T09:34:05;101087.72;;;1.41;70.13
75585;BME280;64162;53.508;10.476;2023-12-04T09:36:32;101088.84;;;0.91;70.41
75585;BME280;64162;53.508;10.476;2023-12-04T09:38:59;101086.75;;;1.13;71.04
75585;BME280;64162;53.508;10.476;2023-12-04T09:41:25;101085.97;;;0.97;71.31
75585;BME280;64162;53.508;10.476;2023-12-04T09:43:52;101093.09;;;1.06;71.15
75585;BME280;64162;53.508;10.476;2023-12-04T09:46:20;101081.38;;;1.18;71.46
75585;BME280;64162;53.508;10.476;2023-12-04T09:48:47;101087.66;;;1.26;71.26
75585;BME280;64162;53.508;10.476;2023-12-04T09:51:14;101071.88;;;1.50;69.89
75585;BME280;64162;53.508;10.476;2023-12-04T09:53:42;101080.63;;;1.46;70.82
75585;BME280;64162;53.508;10.476;2023-12-04T09:56:09;101081.72;;;1.12;70.82
75585;BME280;64162;53.508;10.476;2023-12-04T09:58:39;101067.56;;;1.79;70.00
75585;BME280;64162;53.508;10.476;2023-12-04T10:01:07;101077.03;;;1.20;71.27
75585;BME280;64162;53.508;10.476;2023-12-04T10:03:35;101059.81;;;1.23;71.02
75585;BME280;64162;53.508;10.476;2023-12-04T10:06:01;101064.91;;;1.52;69.91
75585;BME280;64162;53.508;10.476;2023-12-04T10:08:28;101053.63;;;1.42;71.19
75585;BME280;64162;53.508;10.476;2023-12-04T10:10:54;101057.47;;;1.49;71.28
75585;BME280;64162;53.508;10.476;2023-12-04T10:13:21;101054.34;;;1.58;70.48
75585;BME280;64162;53.508;10.476;2023-12-04T10:15:49;101044.06;;;1.45;69.63
75585;BME280;64162;53.508;10.476;2023-12-04T10:20:56;101048.34;;;1.73;70.34
75585;BME280;64162;53.508;10.476;2023-12-04T10:23:39;101040.31;;;1.37;71.24
75585;BME280;64162;53.508;10.476;2023-12-04T10:26:06;101032.56;;;1.66;70.48
75585;BME280;64162;53.508;10.476;2023-12-04T10:28:34;101036.88;;;1.66;70.46
75585;BME280;64162;53.508;10.476;2023-12-04T10:31:01;101041.22;;;1.21;71.86
75585;BME280;64162;53.508;10.476;2023-12-04T10:33:29;101024.34;;;1.61;70.43
75585;BME280;64162;53.508;10.476;2023-12-04T10:35:57;101024.19;;;2.20;70.92
75585;BME280;64162;53.508;10.476;2023-12-04T10:38:23;101024.75;;;1.55;70.01
75585;BME280;64162;53.508;10.476;2023-12-04T10:40:51;101020.72;;;1.65;70.56
75585;BME280;64162;53.508;10.476;2023-12-04T10:43:19;101018.91;;;1.39;70.78
75585;BME280;64162;53.508;10.476;2023-12-04T10:45:47;101004.72;;;2.71;69.37
75585;BME280;64162;53.508;10.476;2023-12-04T10:48:16;101008.25;;;1.47;71.10
75585;BME280;64162;53.508;10.476;2023-12-04T10:50:44;100992.09;;;2.01;69.19
75585;BME280;64162;53.508;10.476;2023-12-04T10:53:12;101004.88;;;2.01;69.81
75585;BME280;64162;53.508;10.476;2023-12-04T10:55:40;101002.38;;;1.73;70.47
75585;BME280;64162;53.508;10.476;2023-12-04T10:58:08;101000.81;;;1.85;69.31
75585;BME280;64162;53.508;10.476;2023-12-04T11:00:44;100998.72;;;1.77;68.98
75585;BME280;64162;53.508;10.476;2023-12-04T11:03:36;100995.06;;;1.40;70.65
75585;BME280;64162;53.508;10.476;2023-12-04T11:06:05;100991.97;;;1.76;70.88
75585;BME280;64162;53.508;10.476;2023-12-04T11:08:36;100991.72;;;1.66;70.49
75585;BME280;64162;53.508;10.476;2023-12-04T11:11:06;100983.00;;;1.97;69.79
75585;BME280;64162;53.508;10.476;2023-12-04T11:13:38;100973.59;;;1.71;69.85
75585;BME280;64162;53.508;10.476;2023-12-04T11:16:33;100962.50;;;2.11;68.59
75585;BME280;64162;53.508;10.476;2023-12-04T11:19:18;100970.63;;;1.50;70.30
75585;BME280;64162;53.508;10.476;2023-12-04T11:21:47;100957.16;;;2.16;69.28
75585;BME280;64162;53.508;10.476;2023-12-04T11:24:14;100973.44;;;1.87;70.37
75585;BME280;64162;53.508;10.476;2023-12-04T11:26:41;100975.38;;;1.83;69.96
75585;BME280;64162;53.508;10.476;2023-12-04T11:29:09;100956.94;;;1.92;69.23
75585;BME280;64162;53.508;10.476;2023-12-04T11:31:38;100961.53;;;2.27;69.13
75585;BME280;64162;53.508;10.476;2023-12-04T11:34:04;100953.78;;;2.28;68.91
75585;BME280;64162;53.508;10.476;2023-12-04T11:36:34;100945.16;;;1.63;69.98
75585;BME280;64162;53.508;10.476;2023-12-04T11:39:01;100946.03;;;1.76;69.60
75585;BME280;64162;53.508;10.476;2023-12-04T11:41:29;100943.22;;;1.40;70.53
75585;BME280;64162;53.508;10.476;2023-12-04T11:43:56;100942.19;;;1.83;69.14
75585;BME280;64162;53.508;10.476;2023-12-04T11:46:24;100944.22;;;1.78;69.83
75585;BME280;64162;53.508;10.476;2023-12-04T11:48:56;100931.25;;;2.47;68.94
75585;BME280;64162;53.508;10.476;2023-12-04T11:54:09;100940.56;;;2.09;69.68
75585;BME280;64162;53.508;10.476;2023-12-04T11:56:36;100937.81;;;1.85;70.10
75585;BME280;64162;53.508;10.476;2023-12-04T11:59:03;100922.47;;;1.58;70.69
75585;BME280;64162;53.508;10.476;2023-12-04T12:01:37;100923.34;;;1.98;69.82
75585;BME280;64162;53.508;10.476;2023-12-04T12:04:05;100917.34;;;1.99;69.38
75585;BME280;64162;53.508;10.476;2023-12-04T12:06:32;100918.47;;;1.95;68.83
75585;BME280;64162;53.508;10.476;2023-12-04T12:08:58;100906.69;;;1.93;69.82
75585;BME280;64162;53.508;10.476;2023-12-04T12:11:25;100907.13;;;1.99;69.79
75585;BME280;64162;53.508;10.476;2023-12-04T12:13:55;100887.88;;;2.21;68.75
75585;BME280;64162;53.508;10.476;2023-12-04T12:16:22;100896.28;;;1.69;69.86
75585;BME280;64162;53.508;10.476;2023-12-04T12:18:48;100883.38;;;1.85;70.25
75585;BME280;64162;53.508;10.476;2023-12-04T12:21:15;100888.06;;;1.78;70.64
75585;BME280;64162;53.508;10.476;2023-12-04T12:23:42;100880.91;;;2.23;68.99
75585;BME280;64162;53.508;10.476;2023-12-04T12:26:09;100882.47;;;1.59;70.49
75585;BME280;64162;53.508;10.476;2023-12-04T12:28:37;100880.78;;;1.99;69.31
75585;BME280;64162;53.508;10.476;2023-12-04T12:31:04;100873.47;;;2.20;68.69
75585;BME280;64162;53.508;10.476;2023-12-04T12:33:31;100863.38;;;1.91;69.63
75585;BME280;64162;53.508;10.476;2023-12-04T12:35:58;100862.72;;;2.27;68.44
75585;BME280;64162;53.508;10.476;2023-12-04T12:38:28;100863.19;;;1.94;68.77
75585;BME280;64162;53.508;10.476;2023-12-04T12:40:55;100851.91;;;2.24;69.06
75585;BME280;64162;53.508;10.476;2023-12-04T12:43:22;100856.53;;;2.31;69.79
75585;BME280;64162;53.508;10.476;2023-12-04T12:45:49;100852.63;;;2.76;67.86
75585;BME280;64162;53.508;10.476;2023-12-04T12:48:17;100834.63;;;2.27;68.42
75585;BME280;64162;53.508;10.476;2023-12-04T12:50:44;100842.00;;;2.57;67.74
75585;BME280;64162;53.508;10.476;2023-12-04T12:53:12;100822.28;;;2.34;69.10
75585;BME280;64162;53.508;10.476;2023-12-04T12:55:42;100827.69;;;2.54;68.23